sensor_id;sensor_type;location;lat;lon;timestamp;P1;durP1;ratioP1;P2;durP2;ratioP2
66886;SDS011;53798;51.680;5.976;2022-08-14T00:02:00;4.68;;;3.40;;
66886;SDS011;53798;51.680;5.976;2022-08-14T00:04:31;5.10;;;3.33;;
66886;SDS011;53798;51.680;5.976;2022-08-14T00:07:09;3.97;;;3.20;;
66886;SDS011;53798;51.680;5.976;2022-08-14T00:09:43;5.40;;;3.55;;
66886;SDS011;53798;51.680;5.976;2022-08-14T00:12:32;6.07;;;3.88;;
66886;SDS011;53798;51.680;5.976;2022-08-14T00:15:15;4.18;;;3.78;;
66886;SDS011;53798;51.680;5.976;2022-08-14T00:18:10;5.90;;;3.42;;
66886;SDS011;53798;51.680;5.976;2022-08-14T00:21:01;4.55;;;3.60;;
66886;SDS011;53798;51.680;5.976;2022-08-14T00:23:37;10.77;;;3.78;;
66886;SDS011;53798;51.680;5.976;2022-08-14T00:26:05;5.60;;;3.63;;
66886;SDS011;53798;51.680;5.976;2022-08-14T00:28:38;4.88;;;3.70;;
66886;SDS011;53798;51.680;5.976;2022-08-14T00:31:07;5.22;;;3.72;;
66886;SDS011;53798;51.680;5.976;2022-08-14T00:33:35;6.13;;;3.92;;
66886;SDS011;53798;51.680;5.976;2022-08-14T00:36:17;4.63;;;3.65;;
66886;SDS011;53798;51.680;5.976;2022-08-14T00:39:05;5.57;;;3.67;;
66886;SDS011;53798;51.680;5.976;2022-08-14T00:41:35;4.50;;;3.60;;
66886;SDS011;53798;51.680;5.976;2022-08-14T00:44:05;4.57;;;3.60;;
66886;SDS011;53798;51.680;5.976;2022-08-14T00:46:35;6.18;;;3.63;;
66886;SDS011;53798;51.680;5.976;2022-08-14T00:49:04;7.55;;;3.50;;
66886;SDS011;53798;51.680;5.976;2022-08-14T00:51:41;7.35;;;3.67;;
66886;SDS011;53798;51.680;5.976;2022-08-14T00:54:13;4.85;;;3.30;;
66886;SDS011;53798;51.680;5.976;2022-08-14T00:56:50;5.00;;;3.53;;
66886;SDS011;53798;51.680;5.976;2022-08-14T00:59:22;4.05;;;3.53;;
66886;SDS011;53798;51.680;5.976;2022-08-14T01:01:55;7.00;;;3.72;;
66886;SDS011;53798;51.680;5.976;2022-08-14T01:04:27;6.63;;;4.13;;
66886;SDS011;53798;51.680;5.976;2022-08-14T01:07:18;4.65;;;3.72;;
66886;SDS011;53798;51.680;5.976;2022-08-14T01:09:58;5.72;;;3.90;;
66886;SDS011;53798;51.680;5.976;2022-08-14T01:12:29;4.72;;;3.70;;
66886;SDS011;53798;51.680;5.976;2022-08-14T01:14:58;6.53;;;3.67;;
66886;SDS011;53798;51.680;5.976;2022-08-14T01:17:29;5.53;;;3.72;;
66886;SDS011;53798;51.680;5.976;2022-08-14T01:20:19;5.43;;;3.97;;
66886;SDS011;53798;51.680;5.976;2022-08-14T01:23:10;5.45;;;3.60;;
66886;SDS011;53798;51.680;5.976;2022-08-14T01:25:48;4.65;;;3.72;;
66886;SDS011;53798;51.680;5.976;2022-08-14T01:28:18;4.18;;;3.67;;
66886;SDS011;53798;51.680;5.976;2022-08-14T01:31:14;5.70;;;3.90;;
66886;SDS011;53798;51.680;5.976;2022-08-14T01:33:46;7.60;;;3.90;;
66886;SDS011;53798;51.680;5.976;2022-08-14T01:36:36;4.82;;;3.55;;
66886;SDS011;53798;51.680;5.976;2022-08-14T01:39:12;5.70;;;3.80;;
66886;SDS011;53798;51.680;5.976;2022-08-14T01:41:44;7.70;;;4.05;;
66886;SDS011;53798;51.680;5.976;2022-08-14T01:44:24;5.43;;;3.88;;
66886;SDS011;53798;51.680;5.976;2022-08-14T01:47:01;5.90;;;4.10;;
66886;SDS011;53798;51.680;5.976;2022-08-14T01:49:50;5.25;;;3.95;;
66886;SDS011;53798;51.680;5.976;2022-08-14T01:52:25;4.78;;;4.10;;
66886;SDS011;53798;51.680;5.976;2022-08-14T01:55:16;4.97;;;4.00;;
66886;SDS011;53798;51.680;5.976;2022-08-14T01:57:44;4.72;;;3.78;;
66886;SDS011;53798;51.680;5.976;2022-08-14T02:00:28;4.53;;;4.00;;
66886;SDS011;53798;51.680;5.976;2022-08-14T02:05:33;6.82;;;4.15;;
66886;SDS011;53798;51.680;5.976;2022-08-14T02:08:04;8.73;;;4.55;;
66886;SDS011;53798;51.680;5.976;2022-08-14T02:10:40;7.72;;;4.40;;
66886;SDS011;53798;51.680;5.976;2022-08-14T02:13:14;5.95;;;4.10;;
66886;SDS011;53798;51.680;5.976;2022-08-14T02:15:43;6.80;;;4.30;;
66886;SDS011;53798;51.680;5.976;2022-08-14T02:18:15;6.80;;;4.03;;
66886;SDS011;53798;51.680;5.976;2022-08-14T02:20:44;7.47;;;4.47;;
66886;SDS011;53798;51.680;5.976;2022-08-14T02:23:14;5.53;;;4.50;;
66886;SDS011;53798;51.680;5.976;2022-08-14T02:25:49;6.88;;;4.40;;
66886;SDS011;53798;51.680;5.976;2022-08-14T02:28:20;5.32;;;4.55;;
66886;SDS011;53798;51.680;5.976;2022-08-14T02:31:08;4.72;;;4.22;;
66886;SDS011;53798;51.680;5.976;2022-08-14T02:33:40;7.10;;;4.18;;
66886;SDS011;53798;51.680;5.976;2022-08-14T02:36:08;8.18;;;4.75;;
66886;SDS011;53798;51.680;5.976;2022-08-14T02:38:58;8.00;;;4.68;;
66886;SDS011;53798;51.680;5.976;2022-08-14T02:41:25;6.65;;;4.53;;
66886;SDS011;53798;51.680;5.976;2022-08-14T02:43:55;6.25;;;4.40;;
66886;SDS011;53798;51.680;5.976;2022-08-14T02:46:27;7.53;;;4.82;;
66886;SDS011;53798;51.680;5.976;2022-08-14T02:48:58;6.60;;;4.80;;
66886;SDS011;53798;51.680;5.976;2022-08-14T02:54:03;5.43;;;4.50;;
66886;SDS011;53798;51.680;5.976;2022-08-14T02:56:39;6.50;;;4.85;;
66886;SDS011;53798;51.680;5.976;2022-08-14T02:59:26;5.10;;;4.60;;
66886;SDS011;53798;51.680;5.976;2022-08-14T03:02:00;5.80;;;5.13;;
66886;SDS011;53798;51.680;5.976;2022-08-14T03:04:30;8.13;;;5.25;;
66886;SDS011;53798;51.680;5.976;2022-08-14T03:06:58;6.53;;;5.40;;
66886;SDS011;53798;51.680;5.976;2022-08-14T03:09:34;7.07;;;5.13;;
66886;SDS011;53798;51.680;5.976;2022-08-14T03:12:25;8.93;;;4.97;;
66886;SDS011;53798;51.680;5.976;2022-08-14T03:14:59;7.05;;;5.50;;
66886;SDS011;53798;51.680;5.976;2022-08-14T03:17:41;7.35;;;5.03;;
66886;SDS011;53798;51.680;5.976;2022-08-14T03:20:26;6.57;;;4.95;;
66886;SDS011;53798;51.680;5.976;2022-08-14T03:22:56;8.95;;;5.20;;
66886;SDS011;53798;51.680;5.976;2022-08-14T03:25:30;8.43;;;5.20;;
66886;SDS011;53798;51.680;5.976;2022-08-14T03:28:07;6.43;;;5.47;;
66886;SDS011;53798;51.680;5.976;2022-08-14T03:30:55;9.60;;;5.95;;
66886;SDS011;53798;51.680;5.976;2022-08-14T03:33:25;8.70;;;5.57;;
66886;SDS011;53798;51.680;5.976;2022-08-14T03:36:04;11.13;;;5.88;;
66886;SDS011;53798;51.680;5.976;2022-08-14T03:38:55;10.50;;;5.93;;
66886;SDS011;53798;51.680;5.976;2022-08-14T03:41:44;8.27;;;5.45;;
66886;SDS011;53798;51.680;5.976;2022-08-14T03:44:11;8.20;;;5.95;;
66886;SDS011;53798;51.680;5.976;2022-08-14T03:46:58;8.32;;;5.78;;
66886;SDS011;53798;51.680;5.976;2022-08-14T03:49:28;9.27;;;6.20;;
66886;SDS011;53798;51.680;5.976;2022-08-14T03:51:57;8.25;;;6.13;;
66886;SDS011;53798;51.680;5.976;2022-08-14T03:54:27;8.32;;;6.13;;
66886;SDS011;53798;51.680;5.976;2022-08-14T03:56:55;9.60;;;6.53;;
66886;SDS011;53798;51.680;5.976;2022-08-14T03:59:32;8.02;;;6.25;;
66886;SDS011;53798;51.680;5.976;2022-08-14T04:02:01;9.23;;;5.75;;
66886;SDS011;53798;51.680;5.976;2022-08-14T04:04:49;7.57;;;6.00;;
66886;SDS011;53798;51.680;5.976;2022-08-14T04:07:17;7.88;;;6.25;;
66886;SDS011;53798;51.680;5.976;2022-08-14T04:09:44;10.23;;;6.30;;
66886;SDS011;53798;51.680;5.976;2022-08-14T04:12:11;8.38;;;6.20;;
66886;SDS011;53798;51.680;5.976;2022-08-14T04:14:39;12.13;;;6.07;;
66886;SDS011;53798;51.680;5.976;2022-08-14T04:17:07;7.45;;;5.68;;
66886;SDS011;53798;51.680;5.976;2022-08-14T04:19:36;9.02;;;6.57;;
66886;SDS011;53798;51.680;5.976;2022-08-14T04:22:04;7.80;;;6.00;;
66886;SDS011;53798;51.680;5.976;2022-08-14T04:24:32;8.25;;;6.50;;
66886;SDS011;53798;51.680;5.976;2022-08-14T04:27:08;9.05;;;6.55;;
66886;SDS011;53798;51.680;5.976;2022-08-14T04:29:41;7.65;;;6.85;;
66886;SDS011;53798;51.680;5.976;2022-08-14T04:32:11;7.80;;;6.30;;
66886;SDS011;53798;51.680;5.976;2022-08-14T04:35:02;7.70;;;6.18;;
66886;SDS011;53798;51.680;5.976;2022-08-14T04:37:36;6.28;;;5.55;;
66886;SDS011;53798;51.680;5.976;2022-08-14T04:40:22;7.55;;;6.07;;
66886;SDS011;53798;51.680;5.976;2022-08-14T04:43:07;8.82;;;6.10;;
66886;SDS011;53798;51.680;5.976;2022-08-14T04:46:12;10.93;;;6.10;;
66886;SDS011;53798;51.680;5.976;2022-08-14T04:49:02;7.68;;;6.40;;
66886;SDS011;53798;51.680;5.976;2022-08-14T04:51:33;6.38;;;5.72;;
66886;SDS011;53798;51.680;5.976;2022-08-14T04:54:12;6.90;;;5.97;;
66886;SDS011;53798;51.680;5.976;2022-08-14T04:56:42;9.20;;;6.93;;
66886;SDS011;53798;51.680;5.976;2022-08-14T04:59:11;9.02;;;6.68;;
66886;SDS011;53798;51.680;5.976;2022-08-14T05:01:39;9.77;;;6.60;;
66886;SDS011;53798;51.680;5.976;2022-08-14T05:04:17;8.98;;;6.57;;
66886;SDS011;53798;51.680;5.976;2022-08-14T05:06:47;13.35;;;7.45;;
66886;SDS011;53798;51.680;5.976;2022-08-14T05:09:20;9.48;;;6.75;;
66886;SDS011;53798;51.680;5.976;2022-08-14T05:11:49;9.60;;;7.63;;
66886;SDS011;53798;51.680;5.976;2022-08-14T05:14:19;12.15;;;7.55;;
66886;SDS011;53798;51.680;5.976;2022-08-14T05:17:09;16.27;;;7.32;;
66886;SDS011;53798;51.680;5.976;2022-08-14T05:19:37;7.78;;;6.72;;
66886;SDS011;53798;51.680;5.976;2022-08-14T05:22:25;8.50;;;6.57;;
66886;SDS011;53798;51.680;5.976;2022-08-14T05:24:53;9.35;;;7.43;;
66886;SDS011;53798;51.680;5.976;2022-08-14T05:27:20;8.73;;;7.07;;
66886;SDS011;53798;51.680;5.976;2022-08-14T05:29:50;11.30;;;7.22;;
66886;SDS011;53798;51.680;5.976;2022-08-14T05:32:21;11.02;;;6.95;;
66886;SDS011;53798;51.680;5.976;2022-08-14T05:34:57;7.63;;;6.22;;
66886;SDS011;53798;51.680;5.976;2022-08-14T05:37:26;7.45;;;6.13;;
66886;SDS011;53798;51.680;5.976;2022-08-14T05:39:56;11.27;;;6.70;;
66886;SDS011;53798;51.680;5.976;2022-08-14T05:42:26;6.95;;;5.75;;
66886;SDS011;53798;51.680;5.976;2022-08-14T05:45:00;8.50;;;5.80;;
66886;SDS011;53798;51.680;5.976;2022-08-14T05:47:30;10.65;;;5.55;;
66886;SDS011;53798;51.680;5.976;2022-08-14T05:50:06;7.57;;;5.72;;
66886;SDS011;53798;51.680;5.976;2022-08-14T05:52:46;7.53;;;5.82;;
66886;SDS011;53798;51.680;5.976;2022-08-14T05:55:17;7.60;;;5.80;;
66886;SDS011;53798;51.680;5.976;2022-08-14T05:57:50;8.57;;;6.10;;
66886;SDS011;53798;51.680;5.976;2022-08-14T06:00:30;11.73;;;5.65;;
66886;SDS011;53798;51.680;5.976;2022-08-14T06:03:06;7.97;;;5.70;;
66886;SDS011;53798;51.680;5.976;2022-08-14T06:05:37;7.75;;;6.28;;
66886;SDS011;53798;51.680;5.976;2022-08-14T06:08:05;8.18;;;6.28;;
66886;SDS011;53798;51.680;5.976;2022-08-14T06:11:07;6.93;;;6.10;;
66886;SDS011;53798;51.680;5.976;2022-08-14T06:13:37;10.35;;;6.80;;
66886;SDS011;53798;51.680;5.976;2022-08-14T06:16:14;8.38;;;6.50;;
66886;SDS011;53798;51.680;5.976;2022-08-14T06:18:45;9.80;;;6.80;;
66886;SDS011;53798;51.680;5.976;2022-08-14T06:23:49;9.20;;;6.78;;
66886;SDS011;53798;51.680;5.976;2022-08-14T06:26:17;8.88;;;6.57;;
66886;SDS011;53798;51.680;5.976;2022-08-14T06:28:48;9.13;;;6.57;;
66886;SDS011;53798;51.680;5.976;2022-08-14T06:31:18;9.90;;;7.28;;
66886;SDS011;53798;51.680;5.976;2022-08-14T06:33:48;8.82;;;7.35;;
66886;SDS011;53798;51.680;5.976;2022-08-14T06:36:36;9.10;;;6.80;;
66886;SDS011;53798;51.680;5.976;2022-08-14T06:39:05;9.95;;;6.72;;
66886;SDS011;53798;51.680;5.976;2022-08-14T06:41:36;9.43;;;7.45;;
66886;SDS011;53798;51.680;5.976;2022-08-14T06:44:26;9.20;;;7.30;;
66886;SDS011;53798;51.680;5.976;2022-08-14T06:46:59;9.20;;;7.35;;
66886;SDS011;53798;51.680;5.976;2022-08-14T06:49:28;10.40;;;6.65;;
66886;SDS011;53798;51.680;5.976;2022-08-14T06:52:06;8.73;;;7.03;;
66886;SDS011;53798;51.680;5.976;2022-08-14T06:54:34;9.60;;;6.45;;
66886;SDS011;53798;51.680;5.976;2022-08-14T06:57:01;8.95;;;6.85;;
66886;SDS011;53798;51.680;5.976;2022-08-14T06:59:29;8.25;;;7.10;;
66886;SDS011;53798;51.680;5.976;2022-08-14T07:01:59;7.50;;;6.70;;
66886;SDS011;53798;51.680;5.976;2022-08-14T07:04:45;8.13;;;7.13;;
66886;SDS011;53798;51.680;5.976;2022-08-14T07:07:35;8.57;;;6.85;;
66886;SDS011;53798;51.680;5.976;2022-08-14T07:12:43;14.50;;;7.65;;
66886;SDS011;53798;51.680;5.976;2022-08-14T07:15:30;8.32;;;6.57;;
66886;SDS011;53798;51.680;5.976;2022-08-14T07:18:05;9.07;;;6.57;;
66886;SDS011;53798;51.680;5.976;2022-08-14T07:20:35;13.90;;;6.70;;
66886;SDS011;53798;51.680;5.976;2022-08-14T07:23:04;8.50;;;6.28;;
66886;SDS011;53798;51.680;5.976;2022-08-14T07:25:45;8.88;;;6.45;;
66886;SDS011;53798;51.680;5.976;2022-08-14T07:28:19;9.13;;;6.20;;
66886;SDS011;53798;51.680;5.976;2022-08-14T07:30:52;7.93;;;6.35;;
66886;SDS011;53798;51.680;5.976;2022-08-14T07:33:44;6.70;;;5.80;;
66886;SDS011;53798;51.680;5.976;2022-08-14T07:36:17;8.13;;;5.75;;
66886;SDS011;53798;51.680;5.976;2022-08-14T07:38:57;7.90;;;5.68;;
66886;SDS011;53798;51.680;5.976;2022-08-14T07:41:26;8.73;;;5.78;;
66886;SDS011;53798;51.680;5.976;2022-08-14T07:44:00;6.20;;;5.60;;
66886;SDS011;53798;51.680;5.976;2022-08-14T07:46:48;8.25;;;5.93;;
66886;SDS011;53798;51.680;5.976;2022-08-14T07:49:15;8.23;;;5.85;;
66886;SDS011;53798;51.680;5.976;2022-08-14T07:51:44;9.88;;;5.88;;
66886;SDS011;53798;51.680;5.976;2022-08-14T07:54:15;9.82;;;6.10;;
66886;SDS011;53798;51.680;5.976;2022-08-14T07:56:57;6.85;;;5.53;;
66886;SDS011;53798;51.680;5.976;2022-08-14T07:59:27;8.77;;;5.90;;
66886;SDS011;53798;51.680;5.976;2022-08-14T08:02:10;6.75;;;5.43;;
66886;SDS011;53798;51.680;5.976;2022-08-14T08:04:46;7.22;;;5.60;;
66886;SDS011;53798;51.680;5.976;2022-08-14T08:07:21;8.52;;;5.63;;
66886;SDS011;53798;51.680;5.976;2022-08-14T08:09:56;6.15;;;5.53;;
66886;SDS011;53798;51.680;5.976;2022-08-14T08:12:28;9.95;;;5.55;;
66886;SDS011;53798;51.680;5.976;2022-08-14T08:14:58;7.07;;;5.65;;
66886;SDS011;53798;51.680;5.976;2022-08-14T08:20:05;7.93;;;5.80;;
66886;SDS011;53798;51.680;5.976;2022-08-14T08:22:38;10.00;;;5.47;;
66886;SDS011;53798;51.680;5.976;2022-08-14T08:25:15;8.95;;;5.57;;
66886;SDS011;53798;51.680;5.976;2022-08-14T08:27:54;8.60;;;5.55;;
66886;SDS011;53798;51.680;5.976;2022-08-14T08:30:35;7.78;;;5.68;;
66886;SDS011;53798;51.680;5.976;2022-08-14T08:33:16;9.23;;;5.47;;
66886;SDS011;53798;51.680;5.976;2022-08-14T08:35:45;7.57;;;6.03;;
66886;SDS011;53798;51.680;5.976;2022-08-14T08:38:17;8.25;;;5.05;;
66886;SDS011;53798;51.680;5.976;2022-08-14T08:41:09;8.27;;;5.32;;
66886;SDS011;53798;51.680;5.976;2022-08-14T08:43:37;7.25;;;5.75;;
66886;SDS011;53798;51.680;5.976;2022-08-14T08:46:18;9.05;;;5.25;;
66886;SDS011;53798;51.680;5.976;2022-08-14T08:48:53;7.65;;;5.72;;
66886;SDS011;53798;51.680;5.976;2022-08-14T08:54:04;6.80;;;5.57;;
66886;SDS011;53798;51.680;5.976;2022-08-14T08:56:45;6.55;;;5.35;;
66886;SDS011;53798;51.680;5.976;2022-08-14T08:59:28;6.93;;;5.03;;
66886;SDS011;53798;51.680;5.976;2022-08-14T09:02:06;9.63;;;5.50;;
66886;SDS011;53798;51.680;5.976;2022-08-14T09:04:37;6.38;;;5.57;;
66886;SDS011;53798;51.680;5.976;2022-08-14T09:07:26;8.40;;;5.35;;
66886;SDS011;53798;51.680;5.976;2022-08-14T09:09:53;6.63;;;5.30;;
66886;SDS011;53798;51.680;5.976;2022-08-14T09:12:25;6.57;;;5.07;;
66886;SDS011;53798;51.680;5.976;2022-08-14T09:15:00;7.38;;;5.55;;
66886;SDS011;53798;51.680;5.976;2022-08-14T09:17:39;28.10;;;6.40;;
66886;SDS011;53798;51.680;5.976;2022-08-14T09:20:09;7.03;;;4.95;;
66886;SDS011;53798;51.680;5.976;2022-08-14T09:22:39;5.93;;;4.90;;
66886;SDS011;53798;51.680;5.976;2022-08-14T09:25:13;7.63;;;5.00;;
66886;SDS011;53798;51.680;5.976;2022-08-14T09:27:45;5.80;;;4.70;;
66886;SDS011;53798;51.680;5.976;2022-08-14T09:30:13;6.05;;;4.50;;
66886;SDS011;53798;51.680;5.976;2022-08-14T09:50:28;6.80;;;4.65;;
66886;SDS011;53798;51.680;5.976;2022-08-14T09:56:48;4.97;;;4.40;;
66886;SDS011;53798;51.680;5.976;2022-08-14T09:59:25;6.97;;;4.30;;
66886;SDS011;53798;51.680;5.976;2022-08-14T10:01:57;5.80;;;4.40;;
66886;SDS011;53798;51.680;5.976;2022-08-14T10:04:25;5.05;;;4.32;;
66886;SDS011;53798;51.680;5.976;2022-08-14T10:07:03;6.32;;;4.38;;
66886;SDS011;53798;51.680;5.976;2022-08-14T10:09:47;9.30;;;4.68;;
66886;SDS011;53798;51.680;5.976;2022-08-14T10:12:39;10.05;;;5.28;;
66886;SDS011;53798;51.680;5.976;2022-08-14T10:15:15;6.13;;;4.40;;
66886;SDS011;53798;51.680;5.976;2022-08-14T10:17:49;5.28;;;4.28;;
66886;SDS011;53798;51.680;5.976;2022-08-14T10:20:35;8.90;;;3.97;;
66886;SDS011;53798;51.680;5.976;2022-08-14T10:23:14;4.53;;;3.45;;
66886;SDS011;53798;51.680;5.976;2022-08-14T10:25:50;5.60;;;4.25;;
66886;SDS011;53798;51.680;5.976;2022-08-14T10:28:24;4.45;;;4.05;;
66886;SDS011;53798;51.680;5.976;2022-08-14T10:31:16;5.43;;;3.72;;
66886;SDS011;53798;51.680;5.976;2022-08-14T10:33:59;4.10;;;3.63;;
66886;SDS011;53798;51.680;5.976;2022-08-14T10:36:41;4.68;;;3.80;;
66886;SDS011;53798;51.680;5.976;2022-08-14T10:39:15;6.13;;;3.83;;
66886;SDS011;53798;51.680;5.976;2022-08-14T10:41:46;7.60;;;4.22;;
66886;SDS011;53798;51.680;5.976;2022-08-14T10:44:21;6.55;;;3.65;;
66886;SDS011;53798;51.680;5.976;2022-08-14T10:46:55;6.50;;;3.67;;
66886;SDS011;53798;51.680;5.976;2022-08-14T10:49:57;4.70;;;3.60;;
66886;SDS011;53798;51.680;5.976;2022-08-14T10:52:28;4.13;;;3.50;;
66886;SDS011;53798;51.680;5.976;2022-08-14T10:55:07;9.38;;;3.60;;
66886;SDS011;53798;51.680;5.976;2022-08-14T10:57:47;5.43;;;3.25;;
66886;SDS011;53798;51.680;5.976;2022-08-14T11:00:23;3.97;;;3.00;;
66886;SDS011;53798;51.680;5.976;2022-08-14T11:03:03;3.65;;;3.30;;
66886;SDS011;53798;51.680;5.976;2022-08-14T11:05:46;4.00;;;3.20;;
66886;SDS011;53798;51.680;5.976;2022-08-14T11:08:30;3.50;;;3.20;;
66886;SDS011;53798;51.680;5.976;2022-08-14T11:11:00;5.32;;;3.50;;
66886;SDS011;53798;51.680;5.976;2022-08-14T11:13:32;5.03;;;3.10;;
66886;SDS011;53798;51.680;5.976;2022-08-14T11:16:00;3.67;;;3.03;;
66886;SDS011;53798;51.680;5.976;2022-08-14T11:18:28;3.35;;;3.03;;
66886;SDS011;53798;51.680;5.976;2022-08-14T11:21:06;4.25;;;3.10;;
66886;SDS011;53798;51.680;5.976;2022-08-14T11:23:36;3.47;;;3.05;;
66886;SDS011;53798;51.680;5.976;2022-08-14T11:26:10;3.45;;;2.88;;
66886;SDS011;53798;51.680;5.976;2022-08-14T11:28:42;4.07;;;2.95;;
66886;SDS011;53798;51.680;5.976;2022-08-14T11:31:24;4.85;;;2.90;;
66886;SDS011;53798;51.680;5.976;2022-08-14T11:34:04;6.45;;;3.25;;
66886;SDS011;53798;51.680;5.976;2022-08-14T11:36:51;5.65;;;3.30;;
66886;SDS011;53798;51.680;5.976;2022-08-14T11:39:41;4.32;;;2.80;;
66886;SDS011;53798;51.680;5.976;2022-08-14T11:42:18;3.80;;;2.45;;
66886;SDS011;53798;51.680;5.976;2022-08-14T11:45:09;4.45;;;3.03;;
66886;SDS011;53798;51.680;5.976;2022-08-14T11:47:44;7.63;;;3.22;;
66886;SDS011;53798;51.680;5.976;2022-08-14T11:50:33;6.13;;;3.08;;
66886;SDS011;53798;51.680;5.976;2022-08-14T11:53:04;6.30;;;2.92;;
66886;SDS011;53798;51.680;5.976;2022-08-14T11:55:45;4.03;;;3.10;;
66886;SDS011;53798;51.680;5.976;2022-08-14T11:58:17;3.72;;;2.90;;
66886;SDS011;53798;51.680;5.976;2022-08-14T12:01:00;5.10;;;3.10;;
66886;SDS011;53798;51.680;5.976;2022-08-14T12:06:23;3.13;;;2.83;;
66886;SDS011;53798;51.680;5.976;2022-08-14T12:09:01;6.40;;;2.70;;
66886;SDS011;53798;51.680;5.976;2022-08-14T12:11:38;2.90;;;2.60;;
66886;SDS011;53798;51.680;5.976;2022-08-14T12:14:12;3.78;;;2.95;;
66886;SDS011;53798;51.680;5.976;2022-08-14T12:17:03;3.80;;;2.83;;
66886;SDS011;53798;51.680;5.976;2022-08-14T12:19:48;4.05;;;3.05;;
66886;SDS011;53798;51.680;5.976;2022-08-14T12:22:35;3.13;;;2.83;;
66886;SDS011;53798;51.680;5.976;2022-08-14T12:25:19;3.67;;;3.05;;
66886;SDS011;53798;51.680;5.976;2022-08-14T12:27:51;4.45;;;3.00;;
66886;SDS011;53798;51.680;5.976;2022-08-14T12:30:28;3.33;;;3.00;;
66886;SDS011;53798;51.680;5.976;2022-08-14T12:33:22;4.55;;;2.97;;
66886;SDS011;53798;51.680;5.976;2022-08-14T12:36:00;4.07;;;2.83;;
66886;SDS011;53798;51.680;5.976;2022-08-14T12:38:34;2.97;;;2.60;;
66886;SDS011;53798;51.680;5.976;2022-08-14T12:41:12;3.53;;;3.22;;
66886;SDS011;53798;51.680;5.976;2022-08-14T12:43:51;3.42;;;2.70;;
66886;SDS011;53798;51.680;5.976;2022-08-14T12:48:57;4.32;;;3.22;;
66886;SDS011;53798;51.680;5.976;2022-08-14T12:51:32;3.28;;;2.97;;
66886;SDS011;53798;51.680;5.976;2022-08-14T12:53:59;5.15;;;3.50;;
66886;SDS011;53798;51.680;5.976;2022-08-14T12:57:12;5.90;;;3.33;;
66886;SDS011;53798;51.680;5.976;2022-08-14T12:59:46;4.55;;;2.95;;
66886;SDS011;53798;51.680;5.976;2022-08-14T13:02:20;3.90;;;3.08;;
66886;SDS011;53798;51.680;5.976;2022-08-14T13:04:53;4.35;;;3.28;;
66886;SDS011;53798;51.680;5.976;2022-08-14T13:07:25;3.55;;;3.25;;
66886;SDS011;53798;51.680;5.976;2022-08-14T13:09:58;4.75;;;3.28;;
66886;SDS011;53798;51.680;5.976;2022-08-14T13:12:47;4.05;;;3.10;;
66886;SDS011;53798;51.680;5.976;2022-08-14T13:15:38;3.88;;;2.97;;
66886;SDS011;53798;51.680;5.976;2022-08-14T13:18:06;3.72;;;3.08;;
66886;SDS011;53798;51.680;5.976;2022-08-14T13:20:38;4.15;;;2.85;;
66886;SDS011;53798;51.680;5.976;2022-08-14T13:23:17;3.38;;;2.90;;
66886;SDS011;53798;51.680;5.976;2022-08-14T13:25:58;3.67;;;3.10;;
66886;SDS011;53798;51.680;5.976;2022-08-14T13:28:26;7.45;;;3.55;;
66886;SDS011;53798;51.680;5.976;2022-08-14T13:30:59;3.70;;;3.13;;
66886;SDS011;53798;51.680;5.976;2022-08-14T13:33:37;4.82;;;2.85;;
66886;SDS011;53798;51.680;5.976;2022-08-14T13:36:07;4.15;;;3.30;;
66886;SDS011;53798;51.680;5.976;2022-08-14T13:38:49;3.55;;;2.72;;
66886;SDS011;53798;51.680;5.976;2022-08-14T13:41:18;4.88;;;3.00;;
66886;SDS011;53798;51.680;5.976;2022-08-14T13:44:02;4.22;;;3.05;;
66886;SDS011;53798;51.680;5.976;2022-08-14T13:46:30;4.05;;;2.92;;
66886;SDS011;53798;51.680;5.976;2022-08-14T13:48:58;4.95;;;2.90;;
66886;SDS011;53798;51.680;5.976;2022-08-14T13:51:25;6.05;;;3.33;;
66886;SDS011;53798;51.680;5.976;2022-08-14T13:54:03;3.90;;;3.50;;
66886;SDS011;53798;51.680;5.976;2022-08-14T13:59:08;3.65;;;3.00;;
66886;SDS011;53798;51.680;5.976;2022-08-14T14:01:36;3.97;;;2.88;;
66886;SDS011;53798;51.680;5.976;2022-08-14T14:04:14;3.67;;;2.90;;
66886;SDS011;53798;51.680;5.976;2022-08-14T14:06:46;4.20;;;2.90;;
66886;SDS011;53798;51.680;5.976;2022-08-14T14:09:20;3.25;;;2.95;;
66886;SDS011;53798;51.680;5.976;2022-08-14T14:11:58;3.88;;;2.78;;
66886;SDS011;53798;51.680;5.976;2022-08-14T14:14:26;4.78;;;3.00;;
66886;SDS011;53798;51.680;5.976;2022-08-14T14:17:13;4.93;;;3.08;;
66886;SDS011;53798;51.680;5.976;2022-08-14T14:19:41;5.80;;;2.80;;
66886;SDS011;53798;51.680;5.976;2022-08-14T14:22:13;3.60;;;3.13;;
66886;SDS011;53798;51.680;5.976;2022-08-14T14:25:01;6.85;;;3.10;;
66886;SDS011;53798;51.680;5.976;2022-08-14T14:27:28;5.47;;;2.80;;
66886;SDS011;53798;51.680;5.976;2022-08-14T14:30:07;4.45;;;3.10;;
66886;SDS011;53798;51.680;5.976;2022-08-14T14:32:56;4.90;;;3.22;;
66886;SDS011;53798;51.680;5.976;2022-08-14T14:35:36;4.65;;;3.10;;
66886;SDS011;53798;51.680;5.976;2022-08-14T14:38:05;6.18;;;3.60;;
66886;SDS011;53798;51.680;5.976;2022-08-14T14:40:43;3.50;;;3.20;;
66886;SDS011;53798;51.680;5.976;2022-08-14T14:43:26;3.58;;;3.10;;
66886;SDS011;53798;51.680;5.976;2022-08-14T14:45:54;6.55;;;3.28;;
66886;SDS011;53798;51.680;5.976;2022-08-14T14:48:23;4.13;;;3.28;;
66886;SDS011;53798;51.680;5.976;2022-08-14T14:50:56;5.18;;;3.22;;
66886;SDS011;53798;51.680;5.976;2022-08-14T14:53:27;3.55;;;3.10;;
66886;SDS011;53798;51.680;5.976;2022-08-14T14:56:05;3.47;;;2.70;;
66886;SDS011;53798;51.680;5.976;2022-08-14T14:58:55;3.67;;;2.97;;
66886;SDS011;53798;51.680;5.976;2022-08-14T15:01:24;3.67;;;3.38;;
66886;SDS011;53798;51.680;5.976;2022-08-14T15:03:53;3.45;;;3.15;;
66886;SDS011;53798;51.680;5.976;2022-08-14T15:06:25;3.60;;;3.30;;
66886;SDS011;53798;51.680;5.976;2022-08-14T15:08:57;4.38;;;3.10;;
66886;SDS011;53798;51.680;5.976;2022-08-14T15:11:27;4.28;;;3.20;;
66886;SDS011;53798;51.680;5.976;2022-08-14T15:13:56;7.60;;;3.42;;
66886;SDS011;53798;51.680;5.976;2022-08-14T15:16:26;3.47;;;3.13;;
66886;SDS011;53798;51.680;5.976;2022-08-14T15:18:55;5.70;;;2.80;;
66886;SDS011;53798;51.680;5.976;2022-08-14T15:21:23;6.15;;;2.97;;
66886;SDS011;53798;51.680;5.976;2022-08-14T15:23:50;3.08;;;2.50;;
66886;SDS011;53798;51.680;5.976;2022-08-14T15:26:18;2.90;;;2.70;;
66886;SDS011;53798;51.680;5.976;2022-08-14T15:29:03;4.40;;;2.78;;
66886;SDS011;53798;51.680;5.976;2022-08-14T15:31:33;3.65;;;2.70;;
66886;SDS011;53798;51.680;5.976;2022-08-14T15:34:03;4.10;;;2.53;;
66886;SDS011;53798;51.680;5.976;2022-08-14T15:37:00;3.78;;;2.78;;
66886;SDS011;53798;51.680;5.976;2022-08-14T15:39:31;3.42;;;2.70;;
66886;SDS011;53798;51.680;5.976;2022-08-14T15:42:03;5.00;;;2.90;;
66886;SDS011;53798;51.680;5.976;2022-08-14T15:44:46;6.47;;;2.83;;
66886;SDS011;53798;51.680;5.976;2022-08-14T15:47:29;3.25;;;2.95;;
66886;SDS011;53798;51.680;5.976;2022-08-14T15:49:59;3.35;;;2.95;;
66886;SDS011;53798;51.680;5.976;2022-08-14T15:52:30;4.47;;;3.03;;
66886;SDS011;53798;51.680;5.976;2022-08-14T15:55:07;3.85;;;3.10;;
66886;SDS011;53798;51.680;5.976;2022-08-14T15:57:41;4.70;;;3.08;;
66886;SDS011;53798;51.680;5.976;2022-08-14T16:00:32;3.05;;;2.75;;
66886;SDS011;53798;51.680;5.976;2022-08-14T16:03:21;5.75;;;2.90;;
66886;SDS011;53798;51.680;5.976;2022-08-14T16:06:06;2.90;;;2.70;;
66886;SDS011;53798;51.680;5.976;2022-08-14T16:08:44;6.95;;;3.35;;
66886;SDS011;53798;51.680;5.976;2022-08-14T16:11:25;3.40;;;3.00;;
66886;SDS011;53798;51.680;5.976;2022-08-14T16:13:58;3.95;;;2.97;;
66886;SDS011;53798;51.680;5.976;2022-08-14T16:16:27;5.85;;;3.28;;
66886;SDS011;53798;51.680;5.976;2022-08-14T16:19:16;3.60;;;2.90;;
66886;SDS011;53798;51.680;5.976;2022-08-14T16:21:49;3.67;;;2.95;;
66886;SDS011;53798;51.680;5.976;2022-08-14T16:24:41;3.63;;;3.20;;
66886;SDS011;53798;51.680;5.976;2022-08-14T16:27:29;3.75;;;3.03;;